• Join FlightAware (Why Join?)
  • Login
  • US Flag 
07:29PM EDT


 

Airport Tracker/Info


-or-


 

Live Flight TrackerFlight Track Log ✈ SWA499 ✈ 30-Apr-2013 ✈ KDEN - KMCI

Flight Track Log - Related Links

Times and Time Zones

All times are in EDT time to prevent confusion due to time zone crossing. See the SWA499 flight status page for this flight to view local times or setup timezone preferences in your user account.

Time Position Orientation Groundspeed Altitude Reporting Facility
EDT Latitude Longitude Course Direction KTS MPH feet Rate Location/Type
12:33PM 39.8833 -104.6000 118° Southeast 167 192 6,900  Level Denver TRACON
12:34PM 39.8500 -104.5167 117° Southeast 233 268 9,200 1,680 Climbing Denver TRACON
12:35PM 39.8275 -104.4453 112° Southeast 274 315 10,000 540 Climbing Denver Center
12:36PM 39.8083 -104.3300 102° East 323 372 10,200 1,740 Climbing Denver Center
12:37PM 39.7950 -104.2075 98° East 342 394 13,600 3,540 Climbing Denver Center
12:38PM 39.7792 -104.0658 98° East 370 426 17,600 3,300 Climbing Denver Center
12:39PM 39.7647 -103.9225 97° East 401 461 20,500 2,940 Climbing Denver Center
12:40PM 39.7431 -103.7556 100° East 436 502 23,700 3,000 Climbing Denver Center
12:41PM 39.7317 -103.6114 96° East 430 495 26,700 2,520 Climbing Denver Center
12:42PM 39.7172 -103.4314 96° East 447 514 29,000 1,080 Climbing Denver Center
12:43PM 39.7028 -103.2517 96° East 461 531 29,000  Level Denver Center
12:44PM 39.6892 -103.0917 96° East 464 534 29,000 900 Level Denver Center
12:45PM 39.6731 -102.9064 96° East 464 534 30,900 1,740 Climbing Denver Center
12:46PM 39.6592 -102.7408 96° East 476 548 32,600 1,800 Climbing Denver Center
12:47PM 39.6453 -102.5744 96° East 483 556 34,700 1,680 Climbing Denver Center
12:48PM 39.6275 -102.3800 97° East 486 559 36,100 1,620 Climbing Denver Center
12:49PM 39.6136 -102.2172 96° East 481 554 38,100 1,620 Climbing Denver Center
12:50PM 39.5969 -102.0275 96° East 477 549 39,500 1,320 Climbing Denver Center
12:51PM 39.5828 -101.8619 96° East 480 552 40,900 720 Climbing Denver Center
12:52PM 39.5675 -101.6744 96° East 472 543 41,000  Climbing Denver Center
12:53PM 39.5539 -101.5128 96° East 474 545 41,000  Level Denver Center
12:54PM 39.5339 -101.3289 98° East 465 535 41,000  Level Denver Center
12:55PM 39.5114 -101.1722 100° East 463 533 41,000  Level Denver Center
12:56PM 39.4767 -100.9936 104° East 461 531 41,000  Level Denver Center
12:58PM 39.4431 -100.8436 106° East 457 526 41,000  Level Denver Center
12:59PM 39.3994 -100.6450 106° East 452 520 41,000  Level Denver Center
01:00PM 39.3603 -100.4692 106° East 455 524 41,000  Level Denver Center
01:01PM 39.3200 -100.2928 106° East 459 528 41,000  Level Denver Center
01:02PM 39.2806 -100.1175 106° East 458 527 41,000  Level Denver Center
01:03PM 39.2461 -99.9672 106° East 456 525 41,000  Level Denver Center
01:04PM 39.2103 -99.8086 106° East 456 525 41,000  Level Denver Center
01:05PM 39.1703 -99.6403 107° East 442 509 41,000  Level Denver Center
01:06PM 39.1422 -99.5178 106° East 445 512 41,000  Level Denver Center
01:07PM 39.1639 -99.3172 82° East 446 513 41,000  Level Denver Center
01:08PM 39.1867 -99.1517 80° East 447 514 41,000  Level Denver Center
01:09PM 39.2114 -98.9769 80° East 445 512 41,000 -60 Level Denver Center
01:10PM 39.2353 -98.8183 79° East 445 512 40,900 -660 Descending Denver Center
01:11PM 39.2611 -98.6292 80° East 447 514 39,700 -1,020 Descending Denver Center
01:12PM 39.2844 -98.4697 79° East 451 519 38,800 -900 Descending Denver Center
01:14PM 39.3086 -98.3031 79° East 462 532 37,800 -960 Descending Kansas City Center
01:15PM 39.3319 -98.1283 80° East 461 531 36,800 -960 Descending Kansas City Center
01:16PM 39.3539 -97.9700 80° East 464 534 35,900 -1,020 Descending Kansas City Center
01:17PM 39.3811 -97.7747 80° East 475 547 34,800 -1,080 Descending Kansas City Center
01:18PM 39.4033 -97.6064 80° East 475 547 33,700 -1,020 Descending Kansas City Center
01:19PM 39.4244 -97.4394 81° East 462 532 32,700 -1,020 Descending Kansas City Center
01:20PM 39.4444 -97.2847 80° East 457 526 31,700 -1,020 Descending Kansas City Center
01:21PM 39.4672 -97.1072 81° East 450 518 30,600 -1,020 Descending Kansas City Center
01:22PM 39.4861 -96.9564 81° East 445 512 29,600 -1,020 Descending Kansas City Center
01:23PM 39.5067 -96.7858 81° East 433 498 28,500 -1,080 Descending Kansas City Center
01:24PM 39.5261 -96.6319 81° East 428 493 27,400 -1,080 Descending Kansas City Center
01:25PM 39.5439 -96.4861 81° East 425 489 26,400 -1,020 Descending Kansas City Center
01:26PM 39.5619 -96.3364 81° East 421 484 25,400 -1,080 Descending Kansas City Center
01:27PM 39.5792 -96.1903 81° East 413 475 24,200 -1,680 Descending Kansas City Center
01:28PM 39.5989 -96.0297 81° East 402 463 22,000 -2,040 Descending Kansas City Center
01:29PM 39.6136 -95.8972 82° East 390 449 20,100 -2,100 Descending Kansas City Center
01:30PM 39.6328 -95.7442 81° East 385 443 17,700 -2,100 Descending Kansas City Center
01:31PM 39.6469 -95.6175 82° East 373 429 15,800 -1,980 Descending Kansas City Center
01:32PM 39.6622 -95.4769 82° East 353 406 13,700 -1,680 Descending Kansas City Center
01:33PM 39.6758 -95.3603 81° East 342 394 12,300 -1,800 Descending Kansas City Center
01:34PM 39.6897 -95.2306 82° East 326 375 10,000 -1,800 Descending Kansas City Center
01:35PM 39.6731 -95.1239 101° East 311 358 8,700 -1,260 Descending Kansas City Center
01:36PM 39.6386 -95.0331 116° Southeast 295 339 7,400 -1,380 Descending Kansas City Center
01:37PM 39.5825 -94.9472 130° Southeast 277 319 5,900 -720 Descending Kansas City Center
01:38PM 39.5414 -94.8819 129° Southeast 245 282 6,000 -540 Climbing Kansas City Center
01:39PM 39.5014 -94.8181 129° Southeast 205 236 4,900 -1,140 Descending Kansas City Center
01:40PM 39.4644 -94.7714 136° Southeast 195 224 3,700 -1,140 Descending Kansas City Center
01:41PM 39.4211 -94.7242 140° Southeast 182 209 2,600 -780 Descending Kansas City Center
01:42PM 39.3858 -94.7047 157° South 145 167 2,200 -600 Descending Kansas City Center
01:43PM 39.3469 -94.7133 190° South 128 147 1,400 -660 Descending Kansas City Center
01:45PM 39.3186 -94.7222 194° South 130 150 900 -540 Descending Kansas City Center